sensor_id;sensor_type;location;lat;lon;timestamp;P1;durP1;ratioP1;P2;durP2;ratioP2
71566;SDS011;59403;47.456;19.120;2022-12-18T00:00:48;40.17;;;14.32;;
71566;SDS011;59403;47.456;19.120;2022-12-18T00:03:15;44.38;;;14.57;;
71566;SDS011;59403;47.456;19.120;2022-12-18T00:05:46;41.33;;;14.52;;
71566;SDS011;59403;47.456;19.120;2022-12-18T00:08:13;38.23;;;13.73;;
71566;SDS011;59403;47.456;19.120;2022-12-18T00:10:42;38.35;;;13.55;;
71566;SDS011;59403;47.456;19.120;2022-12-18T00:13:10;39.50;;;13.90;;
71566;SDS011;59403;47.456;19.120;2022-12-18T00:15:37;43.47;;;14.30;;
71566;SDS011;59403;47.456;19.120;2022-12-18T00:18:05;44.00;;;15.02;;
71566;SDS011;59403;47.456;19.120;2022-12-18T00:20:35;41.20;;;14.00;;
71566;SDS011;59403;47.456;19.120;2022-12-18T00:23:03;40.42;;;13.27;;
71566;SDS011;59403;47.456;19.120;2022-12-18T00:25:32;38.67;;;13.50;;
71566;SDS011;59403;47.456;19.120;2022-12-18T00:28:01;41.08;;;13.48;;
71566;SDS011;59403;47.456;19.120;2022-12-18T00:30:28;36.38;;;13.23;;
71566;SDS011;59403;47.456;19.120;2022-12-18T00:32:55;39.97;;;14.23;;
71566;SDS011;59403;47.456;19.120;2022-12-18T00:35:23;41.53;;;15.77;;
71566;SDS011;59403;47.456;19.120;2022-12-18T00:37:50;38.20;;;13.35;;
71566;SDS011;59403;47.456;19.120;2022-12-18T00:40:17;41.85;;;13.82;;
71566;SDS011;59403;47.456;19.120;2022-12-18T00:42:47;42.47;;;14.52;;
71566;SDS011;59403;47.456;19.120;2022-12-18T00:45:23;42.83;;;15.37;;
71566;SDS011;59403;47.456;19.120;2022-12-18T00:47:51;41.03;;;13.13;;
71566;SDS011;59403;47.456;19.120;2022-12-18T00:50:18;39.22;;;13.88;;
71566;SDS011;59403;47.456;19.120;2022-12-18T00:52:45;41.20;;;13.60;;
71566;SDS011;59403;47.456;19.120;2022-12-18T00:55:13;40.95;;;14.32;;
71566;SDS011;59403;47.456;19.120;2022-12-18T00:57:40;44.17;;;14.83;;
71566;SDS011;59403;47.456;19.120;2022-12-18T01:00:08;41.70;;;13.98;;
71566;SDS011;59403;47.456;19.120;2022-12-18T01:02:39;42.53;;;14.45;;
71566;SDS011;59403;47.456;19.120;2022-12-18T01:05:06;36.17;;;13.35;;
71566;SDS011;59403;47.456;19.120;2022-12-18T01:07:34;40.83;;;14.15;;
71566;SDS011;59403;47.456;19.120;2022-12-18T01:10:01;38.83;;;14.37;;
71566;SDS011;59403;47.456;19.120;2022-12-18T01:12:28;39.83;;;13.75;;
71566;SDS011;59403;47.456;19.120;2022-12-18T01:14:55;39.50;;;13.93;;
71566;SDS011;59403;47.456;19.120;2022-12-18T01:17:22;42.45;;;14.98;;
71566;SDS011;59403;47.456;19.120;2022-12-18T01:19:51;44.75;;;14.80;;
71566;SDS011;59403;47.456;19.120;2022-12-18T01:22:18;36.37;;;12.43;;
71566;SDS011;59403;47.456;19.120;2022-12-18T01:24:45;43.78;;;14.80;;
71566;SDS011;59403;47.456;19.120;2022-12-18T01:27:12;38.97;;;14.25;;
71566;SDS011;59403;47.456;19.120;2022-12-18T01:29:39;43.55;;;14.35;;
71566;SDS011;59403;47.456;19.120;2022-12-18T01:32:05;40.17;;;14.07;;
71566;SDS011;59403;47.456;19.120;2022-12-18T01:34:32;39.17;;;13.73;;
71566;SDS011;59403;47.456;19.120;2022-12-18T01:37:03;36.72;;;13.98;;
71566;SDS011;59403;47.456;19.120;2022-12-18T01:39:30;41.47;;;14.23;;
71566;SDS011;59403;47.456;19.120;2022-12-18T01:41:58;43.63;;;15.18;;
71566;SDS011;59403;47.456;19.120;2022-12-18T01:47:26;40.17;;;14.03;;
71566;SDS011;59403;47.456;19.120;2022-12-18T01:49:57;38.65;;;13.52;;
71566;SDS011;59403;47.456;19.120;2022-12-18T01:52:28;42.25;;;15.43;;
71566;SDS011;59403;47.456;19.120;2022-12-18T01:54:57;40.12;;;14.13;;
71566;SDS011;59403;47.456;19.120;2022-12-18T01:57:25;42.28;;;16.55;;
71566;SDS011;59403;47.456;19.120;2022-12-18T01:59:53;41.63;;;13.83;;
71566;SDS011;59403;47.456;19.120;2022-12-18T02:05:03;41.10;;;14.73;;
71566;SDS011;59403;47.456;19.120;2022-12-18T02:07:47;43.15;;;14.38;;
71566;SDS011;59403;47.456;19.120;2022-12-18T02:10:31;44.13;;;14.77;;
71566;SDS011;59403;47.456;19.120;2022-12-18T02:13:06;45.70;;;13.53;;
71566;SDS011;59403;47.456;19.120;2022-12-18T02:15:41;41.00;;;14.05;;
71566;SDS011;59403;47.456;19.120;2022-12-18T02:18:15;41.67;;;14.02;;
71566;SDS011;59403;47.456;19.120;2022-12-18T02:20:47;33.60;;;13.15;;
71566;SDS011;59403;47.456;19.120;2022-12-18T02:23:23;42.97;;;14.60;;
71566;SDS011;59403;47.456;19.120;2022-12-18T02:28:53;39.88;;;13.25;;
71566;SDS011;59403;47.456;19.120;2022-12-18T02:31:25;35.88;;;12.93;;
71566;SDS011;59403;47.456;19.120;2022-12-18T02:33:55;40.12;;;14.48;;
71566;SDS011;59403;47.456;19.120;2022-12-18T02:36:25;39.70;;;14.45;;
71566;SDS011;59403;47.456;19.120;2022-12-18T02:38:54;41.13;;;13.63;;
71566;SDS011;59403;47.456;19.120;2022-12-18T02:41:24;42.47;;;13.60;;
71566;SDS011;59403;47.456;19.120;2022-12-18T02:43:53;38.38;;;13.55;;
71566;SDS011;59403;47.456;19.120;2022-12-18T02:46:27;39.78;;;14.15;;
71566;SDS011;59403;47.456;19.120;2022-12-18T02:49:00;42.10;;;14.27;;
71566;SDS011;59403;47.456;19.120;2022-12-18T02:51:34;40.23;;;13.70;;
71566;SDS011;59403;47.456;19.120;2022-12-18T02:54:08;37.38;;;14.07;;
71566;SDS011;59403;47.456;19.120;2022-12-18T02:56:44;43.00;;;13.82;;
71566;SDS011;59403;47.456;19.120;2022-12-18T02:59:17;43.60;;;14.75;;
71566;SDS011;59403;47.456;19.120;2022-12-18T03:01:49;41.00;;;13.52;;
71566;SDS011;59403;47.456;19.120;2022-12-18T03:04:23;39.33;;;13.60;;
71566;SDS011;59403;47.456;19.120;2022-12-18T03:06:54;41.40;;;14.23;;
71566;SDS011;59403;47.456;19.120;2022-12-18T03:09:24;45.63;;;14.52;;
71566;SDS011;59403;47.456;19.120;2022-12-18T03:12:01;39.90;;;13.75;;
71566;SDS011;59403;47.456;19.120;2022-12-18T03:14:50;37.28;;;13.68;;
71566;SDS011;59403;47.456;19.120;2022-12-18T03:17:22;37.80;;;12.93;;
71566;SDS011;59403;47.456;19.120;2022-12-18T03:19:51;41.25;;;13.85;;
71566;SDS011;59403;47.456;19.120;2022-12-18T03:22:22;39.72;;;14.23;;
71566;SDS011;59403;47.456;19.120;2022-12-18T03:24:53;40.83;;;13.52;;
71566;SDS011;59403;47.456;19.120;2022-12-18T03:27:24;40.88;;;15.35;;
71566;SDS011;59403;47.456;19.120;2022-12-18T03:29:54;40.23;;;14.07;;
71566;SDS011;59403;47.456;19.120;2022-12-18T03:32:33;50.92;;;14.87;;
71566;SDS011;59403;47.456;19.120;2022-12-18T03:35:06;43.53;;;15.75;;
71566;SDS011;59403;47.456;19.120;2022-12-18T03:37:37;44.60;;;15.07;;
71566;SDS011;59403;47.456;19.120;2022-12-18T03:40:05;42.13;;;14.18;;
71566;SDS011;59403;47.456;19.120;2022-12-18T03:42:35;46.27;;;15.80;;
71566;SDS011;59403;47.456;19.120;2022-12-18T03:45:10;42.33;;;14.48;;
71566;SDS011;59403;47.456;19.120;2022-12-18T03:47:41;49.92;;;18.25;;
71566;SDS011;59403;47.456;19.120;2022-12-18T03:50:18;60.55;;;24.48;;
71566;SDS011;59403;47.456;19.120;2022-12-18T03:52:49;56.35;;;22.17;;
71566;SDS011;59403;47.456;19.120;2022-12-18T03:55:21;45.43;;;16.37;;
71566;SDS011;59403;47.456;19.120;2022-12-18T03:57:51;41.30;;;15.50;;
71566;SDS011;59403;47.456;19.120;2022-12-18T04:00:19;42.25;;;16.05;;
71566;SDS011;59403;47.456;19.120;2022-12-18T04:02:47;47.80;;;15.80;;
71566;SDS011;59403;47.456;19.120;2022-12-18T04:05:17;40.67;;;14.85;;
71566;SDS011;59403;47.456;19.120;2022-12-18T04:07:45;49.03;;;15.63;;
71566;SDS011;59403;47.456;19.120;2022-12-18T04:10:15;46.85;;;18.25;;
71566;SDS011;59403;47.456;19.120;2022-12-18T04:12:42;51.63;;;19.12;;
71566;SDS011;59403;47.456;19.120;2022-12-18T04:15:11;47.03;;;18.87;;
71566;SDS011;59403;47.456;19.120;2022-12-18T04:17:41;47.00;;;18.60;;
71566;SDS011;59403;47.456;19.120;2022-12-18T04:20:15;46.63;;;17.17;;
71566;SDS011;59403;47.456;19.120;2022-12-18T04:22:42;46.40;;;16.70;;
71566;SDS011;59403;47.456;19.120;2022-12-18T04:25:09;43.20;;;16.80;;
71566;SDS011;59403;47.456;19.120;2022-12-18T04:27:36;46.13;;;16.48;;
71566;SDS011;59403;47.456;19.120;2022-12-18T04:30:03;47.33;;;16.67;;
71566;SDS011;59403;47.456;19.120;2022-12-18T04:32:32;43.77;;;14.57;;
71566;SDS011;59403;47.456;19.120;2022-12-18T04:34:59;43.13;;;15.60;;
71566;SDS011;59403;47.456;19.120;2022-12-18T04:37:26;45.15;;;16.42;;
71566;SDS011;59403;47.456;19.120;2022-12-18T04:39:53;42.80;;;14.15;;
71566;SDS011;59403;47.456;19.120;2022-12-18T04:42:20;40.70;;;15.25;;
71566;SDS011;59403;47.456;19.120;2022-12-18T04:44:47;40.13;;;14.90;;
71566;SDS011;59403;47.456;19.120;2022-12-18T04:47:14;40.40;;;14.65;;
71566;SDS011;59403;47.456;19.120;2022-12-18T04:49:42;40.22;;;14.25;;
71566;SDS011;59403;47.456;19.120;2022-12-18T04:52:09;43.33;;;14.52;;
71566;SDS011;59403;47.456;19.120;2022-12-18T04:54:36;41.45;;;16.15;;
71566;SDS011;59403;47.456;19.120;2022-12-18T04:57:02;42.70;;;15.00;;
71566;SDS011;59403;47.456;19.120;2022-12-18T04:59:30;40.00;;;14.87;;
71566;SDS011;59403;47.456;19.120;2022-12-18T05:01:57;49.58;;;16.50;;
71566;SDS011;59403;47.456;19.120;2022-12-18T05:04:24;53.30;;;17.67;;
71566;SDS011;59403;47.456;19.120;2022-12-18T05:06:52;48.38;;;15.80;;
71566;SDS011;59403;47.456;19.120;2022-12-18T05:09:20;47.93;;;15.87;;
71566;SDS011;59403;47.456;19.120;2022-12-18T05:11:47;40.88;;;14.73;;
71566;SDS011;59403;47.456;19.120;2022-12-18T05:14:14;43.95;;;15.82;;
71566;SDS011;59403;47.456;19.120;2022-12-18T05:16:41;44.03;;;15.55;;
71566;SDS011;59403;47.456;19.120;2022-12-18T05:19:08;42.05;;;15.25;;
71566;SDS011;59403;47.456;19.120;2022-12-18T05:21:35;41.13;;;15.50;;
71566;SDS011;59403;47.456;19.120;2022-12-18T05:24:04;41.63;;;14.80;;
71566;SDS011;59403;47.456;19.120;2022-12-18T05:26:31;45.03;;;15.90;;
71566;SDS011;59403;47.456;19.120;2022-12-18T05:28:58;40.55;;;14.25;;
71566;SDS011;59403;47.456;19.120;2022-12-18T05:31:25;45.22;;;15.82;;
71566;SDS011;59403;47.456;19.120;2022-12-18T05:33:52;42.53;;;14.93;;
71566;SDS011;59403;47.456;19.120;2022-12-18T05:36:19;43.47;;;15.02;;
71566;SDS011;59403;47.456;19.120;2022-12-18T05:38:46;42.50;;;15.25;;
71566;SDS011;59403;47.456;19.120;2022-12-18T05:41:14;43.25;;;15.18;;
71566;SDS011;59403;47.456;19.120;2022-12-18T05:43:41;38.45;;;14.07;;
71566;SDS011;59403;47.456;19.120;2022-12-18T05:46:11;44.73;;;15.80;;
71566;SDS011;59403;47.456;19.120;2022-12-18T05:48:40;45.22;;;15.90;;
71566;SDS011;59403;47.456;19.120;2022-12-18T05:51:08;40.60;;;14.90;;
71566;SDS011;59403;47.456;19.120;2022-12-18T05:53:36;45.58;;;15.15;;
71566;SDS011;59403;47.456;19.120;2022-12-18T05:56:05;35.40;;;13.88;;
71566;SDS011;59403;47.456;19.120;2022-12-18T05:58:35;42.80;;;14.73;;
71566;SDS011;59403;47.456;19.120;2022-12-18T06:01:06;40.33;;;14.50;;
71566;SDS011;59403;47.456;19.120;2022-12-18T06:03:35;47.28;;;15.73;;
71566;SDS011;59403;47.456;19.120;2022-12-18T06:06:02;41.60;;;15.27;;
71566;SDS011;59403;47.456;19.120;2022-12-18T06:08:30;41.92;;;15.27;;
71566;SDS011;59403;47.456;19.120;2022-12-18T06:10:57;39.67;;;13.73;;
71566;SDS011;59403;47.456;19.120;2022-12-18T06:13:23;38.85;;;14.77;;
71566;SDS011;59403;47.456;19.120;2022-12-18T06:15:52;47.00;;;15.68;;
71566;SDS011;59403;47.456;19.120;2022-12-18T06:18:19;42.25;;;15.85;;
71566;SDS011;59403;47.456;19.120;2022-12-18T06:20:53;41.35;;;15.90;;
71566;SDS011;59403;47.456;19.120;2022-12-18T06:23:21;45.53;;;15.20;;
71566;SDS011;59403;47.456;19.120;2022-12-18T06:25:48;42.60;;;14.75;;
71566;SDS011;59403;47.456;19.120;2022-12-18T06:28:15;38.22;;;14.48;;
71566;SDS011;59403;47.456;19.120;2022-12-18T06:30:44;43.47;;;14.60;;
71566;SDS011;59403;47.456;19.120;2022-12-18T06:33:13;42.70;;;14.77;;
71566;SDS011;59403;47.456;19.120;2022-12-18T06:35:40;47.03;;;14.93;;
71566;SDS011;59403;47.456;19.120;2022-12-18T06:38:07;39.08;;;14.80;;
71566;SDS011;59403;47.456;19.120;2022-12-18T06:40:34;44.05;;;15.85;;
71566;SDS011;59403;47.456;19.120;2022-12-18T06:43:04;40.55;;;15.10;;
71566;SDS011;59403;47.456;19.120;2022-12-18T06:45:31;43.28;;;16.00;;
71566;SDS011;59403;47.456;19.120;2022-12-18T06:47:57;41.53;;;15.17;;
71566;SDS011;59403;47.456;19.120;2022-12-18T06:50:26;44.35;;;15.77;;
71566;SDS011;59403;47.456;19.120;2022-12-18T06:52:53;43.53;;;15.18;;
71566;SDS011;59403;47.456;19.120;2022-12-18T06:55:19;52.08;;;16.75;;
71566;SDS011;59403;47.456;19.120;2022-12-18T06:57:46;47.78;;;17.37;;
71566;SDS011;59403;47.456;19.120;2022-12-18T07:00:14;44.40;;;16.80;;
71566;SDS011;59403;47.456;19.120;2022-12-18T07:02:41;43.50;;;15.18;;
71566;SDS011;59403;47.456;19.120;2022-12-18T07:05:08;50.28;;;17.55;;
71566;SDS011;59403;47.456;19.120;2022-12-18T07:07:36;44.22;;;16.42;;
71566;SDS011;59403;47.456;19.120;2022-12-18T07:10:04;45.33;;;16.98;;
71566;SDS011;59403;47.456;19.120;2022-12-18T07:12:31;45.03;;;16.33;;
71566;SDS011;59403;47.456;19.120;2022-12-18T07:14:58;50.63;;;17.17;;
71566;SDS011;59403;47.456;19.120;2022-12-18T07:17:25;46.83;;;16.92;;
71566;SDS011;59403;47.456;19.120;2022-12-18T07:19:52;55.47;;;18.62;;
71566;SDS011;59403;47.456;19.120;2022-12-18T07:22:22;50.03;;;18.65;;
71566;SDS011;59403;47.456;19.120;2022-12-18T07:24:50;52.77;;;18.67;;
71566;SDS011;59403;47.456;19.120;2022-12-18T07:27:17;47.65;;;18.20;;
71566;SDS011;59403;47.456;19.120;2022-12-18T07:29:45;55.33;;;17.62;;
71566;SDS011;59403;47.456;19.120;2022-12-18T07:32:14;49.47;;;18.25;;
71566;SDS011;59403;47.456;19.120;2022-12-18T07:34:41;48.08;;;17.75;;
71566;SDS011;59403;47.456;19.120;2022-12-18T07:37:08;46.93;;;16.77;;
71566;SDS011;59403;47.456;19.120;2022-12-18T07:39:35;48.10;;;17.37;;
71566;SDS011;59403;47.456;19.120;2022-12-18T07:42:03;50.28;;;17.65;;
71566;SDS011;59403;47.456;19.120;2022-12-18T07:44:47;51.97;;;16.87;;
71566;SDS011;59403;47.456;19.120;2022-12-18T07:47:14;50.42;;;18.33;;
71566;SDS011;59403;47.456;19.120;2022-12-18T07:49:41;43.20;;;17.27;;
71566;SDS011;59403;47.456;19.120;2022-12-18T07:52:08;49.22;;;16.98;;
71566;SDS011;59403;47.456;19.120;2022-12-18T07:54:37;46.55;;;16.73;;
71566;SDS011;59403;47.456;19.120;2022-12-18T07:57:05;52.10;;;17.55;;
71566;SDS011;59403;47.456;19.120;2022-12-18T07:59:32;46.03;;;16.67;;
71566;SDS011;59403;47.456;19.120;2022-12-18T08:01:59;48.20;;;18.57;;
71566;SDS011;59403;47.456;19.120;2022-12-18T08:04:40;50.22;;;17.30;;
71566;SDS011;59403;47.456;19.120;2022-12-18T08:07:07;48.90;;;17.80;;
71566;SDS011;59403;47.456;19.120;2022-12-18T08:09:34;47.00;;;16.08;;
71566;SDS011;59403;47.456;19.120;2022-12-18T08:12:01;47.15;;;16.48;;
71566;SDS011;59403;47.456;19.120;2022-12-18T08:14:30;49.83;;;16.70;;
71566;SDS011;59403;47.456;19.120;2022-12-18T08:16:57;52.03;;;17.37;;
71566;SDS011;59403;47.456;19.120;2022-12-18T08:19:24;47.15;;;17.15;;
71566;SDS011;59403;47.456;19.120;2022-12-18T08:21:51;54.95;;;18.87;;
71566;SDS011;59403;47.456;19.120;2022-12-18T08:24:17;44.10;;;16.20;;
71566;SDS011;59403;47.456;19.120;2022-12-18T08:26:44;48.93;;;17.53;;
71566;SDS011;59403;47.456;19.120;2022-12-18T08:29:11;50.08;;;17.87;;
71566;SDS011;59403;47.456;19.120;2022-12-18T08:31:40;55.08;;;18.55;;
71566;SDS011;59403;47.456;19.120;2022-12-18T08:34:07;56.37;;;19.45;;
71566;SDS011;59403;47.456;19.120;2022-12-18T08:36:35;47.58;;;18.05;;
71566;SDS011;59403;47.456;19.120;2022-12-18T08:39:01;50.60;;;18.00;;
71566;SDS011;59403;47.456;19.120;2022-12-18T08:41:28;56.28;;;20.10;;
71566;SDS011;59403;47.456;19.120;2022-12-18T08:43:55;50.25;;;18.65;;
71566;SDS011;59403;47.456;19.120;2022-12-18T08:46:41;50.83;;;18.65;;
71566;SDS011;59403;47.456;19.120;2022-12-18T08:49:10;49.67;;;18.37;;
71566;SDS011;59403;47.456;19.120;2022-12-18T08:51:38;47.13;;;17.33;;
71566;SDS011;59403;47.456;19.120;2022-12-18T08:54:07;47.53;;;19.12;;
71566;SDS011;59403;47.456;19.120;2022-12-18T08:56:37;47.30;;;18.40;;
71566;SDS011;59403;47.456;19.120;2022-12-18T08:59:04;44.83;;;17.12;;
71566;SDS011;59403;47.456;19.120;2022-12-18T09:01:31;49.42;;;18.00;;
71566;SDS011;59403;47.456;19.120;2022-12-18T09:03:59;48.23;;;17.57;;
71566;SDS011;59403;47.456;19.120;2022-12-18T09:06:26;54.42;;;18.92;;
71566;SDS011;59403;47.456;19.120;2022-12-18T09:08:53;50.05;;;18.67;;
71566;SDS011;59403;47.456;19.120;2022-12-18T09:11:22;51.85;;;19.15;;
71566;SDS011;59403;47.456;19.120;2022-12-18T09:13:50;50.83;;;17.87;;
71566;SDS011;59403;47.456;19.120;2022-12-18T09:16:18;49.20;;;17.83;;
71566;SDS011;59403;47.456;19.120;2022-12-18T09:18:45;52.28;;;19.35;;
71566;SDS011;59403;47.456;19.120;2022-12-18T09:21:14;49.55;;;19.27;;
71566;SDS011;59403;47.456;19.120;2022-12-18T09:23:42;52.60;;;19.40;;
71566;SDS011;59403;47.456;19.120;2022-12-18T09:26:10;56.17;;;21.05;;
71566;SDS011;59403;47.456;19.120;2022-12-18T09:28:37;56.77;;;20.60;;
71566;SDS011;59403;47.456;19.120;2022-12-18T09:31:04;50.67;;;20.27;;
71566;SDS011;59403;47.456;19.120;2022-12-18T09:33:32;56.63;;;20.42;;
71566;SDS011;59403;47.456;19.120;2022-12-18T09:36:00;58.47;;;20.40;;
71566;SDS011;59403;47.456;19.120;2022-12-18T09:38:30;54.00;;;20.80;;
71566;SDS011;59403;47.456;19.120;2022-12-18T09:40:59;52.93;;;20.63;;
71566;SDS011;59403;47.456;19.120;2022-12-18T09:43:33;59.30;;;20.80;;
71566;SDS011;59403;47.456;19.120;2022-12-18T09:46:07;53.53;;;19.40;;
71566;SDS011;59403;47.456;19.120;2022-12-18T09:48:39;52.38;;;20.30;;
71566;SDS011;59403;47.456;19.120;2022-12-18T09:51:10;51.88;;;20.30;;
71566;SDS011;59403;47.456;19.120;2022-12-18T09:53:43;51.87;;;20.10;;
71566;SDS011;59403;47.456;19.120;2022-12-18T09:56:15;61.33;;;21.05;;
71566;SDS011;59403;47.456;19.120;2022-12-18T09:58:45;53.67;;;19.77;;
71566;SDS011;59403;47.456;19.120;2022-12-18T10:01:20;60.63;;;22.40;;
71566;SDS011;59403;47.456;19.120;2022-12-18T10:03:49;54.10;;;19.15;;
71566;SDS011;59403;47.456;19.120;2022-12-18T10:06:18;51.40;;;20.00;;
71566;SDS011;59403;47.456;19.120;2022-12-18T10:08:53;53.05;;;19.77;;
71566;SDS011;59403;47.456;19.120;2022-12-18T10:11:32;51.45;;;18.70;;
71566;SDS011;59403;47.456;19.120;2022-12-18T10:14:09;50.97;;;20.17;;
71566;SDS011;59403;47.456;19.120;2022-12-18T10:16:47;52.88;;;19.92;;
71566;SDS011;59403;47.456;19.120;2022-12-18T10:19:29;51.63;;;18.87;;
71566;SDS011;59403;47.456;19.120;2022-12-18T10:22:09;53.65;;;18.80;;
71566;SDS011;59403;47.456;19.120;2022-12-18T10:24:48;48.38;;;19.73;;
71566;SDS011;59403;47.456;19.120;2022-12-18T10:27:21;51.90;;;20.02;;
71566;SDS011;59403;47.456;19.120;2022-12-18T10:29:51;51.22;;;19.05;;
71566;SDS011;59403;47.456;19.120;2022-12-18T10:32:25;50.43;;;18.57;;
71566;SDS011;59403;47.456;19.120;2022-12-18T10:34:54;50.92;;;19.92;;
71566;SDS011;59403;47.456;19.120;2022-12-18T10:37:24;48.72;;;18.75;;
71566;SDS011;59403;47.456;19.120;2022-12-18T10:40:07;52.17;;;18.90;;
71566;SDS011;59403;47.456;19.120;2022-12-18T10:42:36;46.08;;;17.20;;
71566;SDS011;59403;47.456;19.120;2022-12-18T10:45:08;52.83;;;18.57;;
71566;SDS011;59403;47.456;19.120;2022-12-18T10:47:37;45.80;;;17.12;;
71566;SDS011;59403;47.456;19.120;2022-12-18T10:50:17;54.17;;;19.08;;
71566;SDS011;59403;47.456;19.120;2022-12-18T10:52:52;48.63;;;18.02;;
71566;SDS011;59403;47.456;19.120;2022-12-18T10:55:22;51.00;;;17.90;;
71566;SDS011;59403;47.456;19.120;2022-12-18T10:57:52;48.50;;;17.73;;
71566;SDS011;59403;47.456;19.120;2022-12-18T11:00:23;40.83;;;17.02;;
71566;SDS011;59403;47.456;19.120;2022-12-18T11:02:53;40.83;;;16.05;;
71566;SDS011;59403;47.456;19.120;2022-12-18T11:05:27;43.75;;;16.62;;
71566;SDS011;59403;47.456;19.120;2022-12-18T11:07:56;45.10;;;16.83;;
71566;SDS011;59403;47.456;19.120;2022-12-18T11:10:28;46.90;;;16.73;;
71566;SDS011;59403;47.456;19.120;2022-12-18T11:13:08;48.70;;;16.05;;
71566;SDS011;59403;47.456;19.120;2022-12-18T11:15:37;45.90;;;16.05;;
71566;SDS011;59403;47.456;19.120;2022-12-18T11:18:13;45.15;;;16.15;;
71566;SDS011;59403;47.456;19.120;2022-12-18T11:20:46;46.58;;;16.73;;
71566;SDS011;59403;47.456;19.120;2022-12-18T11:23:18;40.90;;;14.97;;
71566;SDS011;59403;47.456;19.120;2022-12-18T11:25:53;41.78;;;16.55;;
71566;SDS011;59403;47.456;19.120;2022-12-18T11:28:27;43.75;;;15.80;;
71566;SDS011;59403;47.456;19.120;2022-12-18T11:31:12;43.13;;;15.90;;
71566;SDS011;59403;47.456;19.120;2022-12-18T11:33:48;44.05;;;15.57;;
71566;SDS011;59403;47.456;19.120;2022-12-18T11:36:20;44.00;;;14.63;;
71566;SDS011;59403;47.456;19.120;2022-12-18T11:38:48;40.80;;;15.05;;
71566;SDS011;59403;47.456;19.120;2022-12-18T11:41:21;44.00;;;14.32;;
71566;SDS011;59403;47.456;19.120;2022-12-18T11:44:14;37.75;;;14.73;;
71566;SDS011;59403;47.456;19.120;2022-12-18T11:46:50;43.78;;;15.38;;
71566;SDS011;59403;47.456;19.120;2022-12-18T11:49:22;40.50;;;14.90;;
71566;SDS011;59403;47.456;19.120;2022-12-18T11:51:54;39.47;;;14.98;;
71566;SDS011;59403;47.456;19.120;2022-12-18T11:54:26;39.25;;;16.02;;
71566;SDS011;59403;47.456;19.120;2022-12-18T11:56:56;37.30;;;14.32;;
71566;SDS011;59403;47.456;19.120;2022-12-18T11:59:33;40.50;;;15.25;;
71566;SDS011;59403;47.456;19.120;2022-12-18T12:02:14;38.60;;;15.37;;
71566;SDS011;59403;47.456;19.120;2022-12-18T12:04:57;41.17;;;14.95;;
71566;SDS011;59403;47.456;19.120;2022-12-18T12:07:49;43.22;;;15.70;;
71566;SDS011;59403;47.456;19.120;2022-12-18T12:10:34;42.17;;;14.85;;
71566;SDS011;59403;47.456;19.120;2022-12-18T12:13:18;47.90;;;17.95;;
71566;SDS011;59403;47.456;19.120;2022-12-18T12:15:58;38.20;;;15.67;;
71566;SDS011;59403;47.456;19.120;2022-12-18T12:18:47;53.10;;;22.80;;
71566;SDS011;59403;47.456;19.120;2022-12-18T12:21:38;44.65;;;17.02;;
71566;SDS011;59403;47.456;19.120;2022-12-18T12:24:13;44.72;;;17.52;;
71566;SDS011;59403;47.456;19.120;2022-12-18T12:26:56;44.40;;;17.37;;
71566;SDS011;59403;47.456;19.120;2022-12-18T12:29:36;45.37;;;17.33;;
71566;SDS011;59403;47.456;19.120;2022-12-18T12:32:17;41.75;;;16.98;;
71566;SDS011;59403;47.456;19.120;2022-12-18T12:34:57;43.95;;;17.05;;
71566;SDS011;59403;47.456;19.120;2022-12-18T12:37:37;48.63;;;19.08;;
71566;SDS011;59403;47.456;19.120;2022-12-18T12:40:12;43.53;;;18.70;;
71566;SDS011;59403;47.456;19.120;2022-12-18T12:42:47;59.20;;;23.47;;
71566;SDS011;59403;47.456;19.120;2022-12-18T12:45:40;51.78;;;20.17;;
71566;SDS011;59403;47.456;19.120;2022-12-18T12:48:15;50.12;;;20.15;;
71566;SDS011;59403;47.456;19.120;2022-12-18T12:50:47;52.67;;;19.40;;
71566;SDS011;59403;47.456;19.120;2022-12-18T12:53:19;51.67;;;19.27;;
71566;SDS011;59403;47.456;19.120;2022-12-18T12:55:52;58.00;;;28.20;;
71566;SDS011;59403;47.456;19.120;2022-12-18T12:58:23;54.97;;;22.33;;
71566;SDS011;59403;47.456;19.120;2022-12-18T13:01:00;60.50;;;23.60;;
71566;SDS011;59403;47.456;19.120;2022-12-18T13:03:36;51.97;;;21.65;;
71566;SDS011;59403;47.456;19.120;2022-12-18T13:06:12;51.78;;;22.95;;
71566;SDS011;59403;47.456;19.120;2022-12-18T13:08:53;49.70;;;21.83;;
71566;SDS011;59403;47.456;19.120;2022-12-18T13:11:29;48.53;;;21.05;;
71566;SDS011;59403;47.456;19.120;2022-12-18T13:14:32;50.95;;;22.30;;
71566;SDS011;59403;47.456;19.120;2022-12-18T13:20:04;54.88;;;21.58;;
71566;SDS011;59403;47.456;19.120;2022-12-18T13:22:35;58.50;;;22.03;;
71566;SDS011;59403;47.456;19.120;2022-12-18T13:27:59;49.08;;;20.67;;
71566;SDS011;59403;47.456;19.120;2022-12-18T13:30:45;58.58;;;22.83;;
71566;SDS011;59403;47.456;19.120;2022-12-18T13:33:40;54.35;;;20.75;;
71566;SDS011;59403;47.456;19.120;2022-12-18T13:36:12;48.97;;;20.43;;
71566;SDS011;59403;47.456;19.120;2022-12-18T13:38:42;50.60;;;19.87;;
71566;SDS011;59403;47.456;19.120;2022-12-18T13:41:23;53.65;;;20.70;;
71566;SDS011;59403;47.456;19.120;2022-12-18T13:43:52;53.55;;;20.77;;
71566;SDS011;59403;47.456;19.120;2022-12-18T13:46:20;51.15;;;20.23;;
71566;SDS011;59403;47.456;19.120;2022-12-18T13:48:55;45.83;;;18.53;;
71566;SDS011;59403;47.456;19.120;2022-12-18T13:51:29;50.67;;;17.92;;
71566;SDS011;59403;47.456;19.120;2022-12-18T13:53:59;47.17;;;18.35;;
71566;SDS011;59403;47.456;19.120;2022-12-18T13:56:42;48.58;;;17.37;;
71566;SDS011;59403;47.456;19.120;2022-12-18T13:59:13;44.95;;;16.75;;
71566;SDS011;59403;47.456;19.120;2022-12-18T14:01:45;44.10;;;17.43;;
71566;SDS011;59403;47.456;19.120;2022-12-18T14:04:20;38.78;;;14.75;;
71566;SDS011;59403;47.456;19.120;2022-12-18T14:06:50;38.83;;;15.80;;
71566;SDS011;59403;47.456;19.120;2022-12-18T14:09:24;39.40;;;15.73;;
71566;SDS011;59403;47.456;19.120;2022-12-18T14:11:53;50.25;;;19.67;;
71566;SDS011;59403;47.456;19.120;2022-12-18T14:14:44;45.40;;;17.50;;
71566;SDS011;59403;47.456;19.120;2022-12-18T14:22:25;58.45;;;22.10;;
71566;SDS011;59403;47.456;19.120;2022-12-18T14:27:42;64.37;;;25.27;;
71566;SDS011;59403;47.456;19.120;2022-12-18T14:30:23;55.95;;;21.90;;
71566;SDS011;59403;47.456;19.120;2022-12-18T14:32:59;54.63;;;22.23;;
71566;SDS011;59403;47.456;19.120;2022-12-18T14:35:26;55.33;;;20.25;;
71566;SDS011;59403;47.456;19.120;2022-12-18T14:38:00;57.35;;;23.12;;
71566;SDS011;59403;47.456;19.120;2022-12-18T14:40:37;52.50;;;20.73;;
71566;SDS011;59403;47.456;19.120;2022-12-18T14:43:04;53.38;;;20.60;;
71566;SDS011;59403;47.456;19.120;2022-12-18T14:45:35;52.97;;;21.08;;
71566;SDS011;59403;47.456;19.120;2022-12-18T14:48:05;51.45;;;19.95;;
71566;SDS011;59403;47.456;19.120;2022-12-18T14:50:35;49.50;;;20.23;;
71566;SDS011;59403;47.456;19.120;2022-12-18T14:53:03;49.13;;;19.43;;